Greenland, NH (03840)

12:26 AM EST on December 26, 2014 (GMT -0500)
Greenland, NH | Change Station
CLOSE
Current Station
Personal Weather Station
Location: Greenland, NH
Elevation: 96 ft
Nearby Weather Stations

Elev 96 ft 43.03 °N, 70.83 °W | Updated 7 minutes ago

Clear
Clear
41.1 °F
Feels Like 41 °F
N
2.0
Wind Variable Wind from WSW
Gusts 7.0 mph

Today
High -- | Low -- °F
--% Chance of Precip.
Yesterday
High -- | Low -- °F
Precip. -- in
7:13 AM 4:14 PM
Waxing Crescent, 22% visible
Pressure 29.91 in
Visibility 10.0 miles
Clouds Clear
Windchill 41 °F
Dew Point 29 °F
Humidity 62%
Rainfall 0.00 in
Snow Depth Not available.
UV 0 out of 12
Pollen .10 out of 12
Air Quality Not available.
Flu Activity Not available.
METAR KPSM 260458Z 22006KT 10SM CLR 04/M03 A2990 RMK AO2A SLP129 T00421030 401160039

More Conditions Fewer Conditions

Pressure 29.91 in
Visibility 10.0 miles
Clouds Clear
Windchill 41 °F
Dew Point 29 °F
Humidity 62%
Rainfall 0.00 in
Snow Depth Not available.
UV 0 out of 12
Pollen .10 out of 12
Air Quality Not available.
Flu Activity Not available.
METAR KPSM 260458Z 22006KT 10SM CLR 04/M03 A2990 RMK AO2A SLP129 T00421030 401160039

More Conditions Fewer Conditions

10-Day Weather Forecast

Almanac

Astronomy

Dec. 26, 2014 Rise Set
Actual Time
Civil Twilight
Nautical Twilight
Astronomical Twilight
Moon
Length of Visible Light
Length of Day
Tomorrow will be .
, % of the Moon is Illuminated

Today's Extremes

State Highs State Lows

Community

WunderPhotos

Upload Photos

1,780,548 photos uploaded!

WunderBlogs® & News

Nearby

Air Quality

  Air Quality AQ Index Pollutant
Not available.

Snow Depth

Station Depth Elevation

Earthquake Activity

City Distance Mag. Time & Date
Minimum magnitude displayed is 2.5.

Coastal Water Temperatures

Place Temperature

Nearby Weather Stations